createdAt,value
2019-01-15T00:03:37.917Z,3.8
2019-01-15T00:08:36.991Z,3.8
2019-01-15T00:13:37.731Z,3.8
2019-01-15T00:18:37.088Z,3.8
2019-01-15T00:23:37.622Z,3.8
2019-01-15T00:28:37.056Z,3.8
2019-01-15T00:33:37.543Z,3.8
2019-01-15T00:38:37.041Z,3.8
2019-01-15T00:43:37.482Z,3.9
2019-01-15T00:48:37.947Z,3.9
2019-01-15T00:53:37.589Z,3.9
2019-01-15T00:58:37.096Z,3.9
2019-01-15T01:03:37.659Z,4
2019-01-15T01:08:37.913Z,4
2019-01-15T01:13:37.614Z,4.1
2019-01-15T01:18:37.053Z,4.1
2019-01-15T01:23:37.569Z,4.1
2019-01-15T01:28:37.074Z,4.1
2019-01-15T01:33:37.836Z,4
2019-01-15T01:38:37.245Z,4
2019-01-15T01:43:37.761Z,4
2019-01-15T01:48:37.191Z,4
2019-01-15T01:53:37.440Z,3.9
2019-01-15T01:58:37.818Z,3.9
2019-01-15T02:03:37.446Z,3.9
2019-01-15T02:08:37.475Z,3.9
2019-01-15T02:13:37.046Z,3.9
2019-01-15T02:18:37.524Z,3.9
2019-01-15T02:23:37.193Z,3.9
2019-01-15T02:28:37.615Z,3.9
2019-01-15T02:33:37.734Z,4
2019-01-15T02:38:37.284Z,4
2019-01-15T02:43:37.900Z,4
2019-01-15T02:48:37.525Z,4
2019-01-15T02:53:37.191Z,3.9
2019-01-15T02:58:37.719Z,3.9
2019-01-15T03:03:37.270Z,3.9
2019-01-15T03:08:37.742Z,3.9
2019-01-15T03:13:37.536Z,3.9
2019-01-15T03:18:37.136Z,3.9
2019-01-15T03:23:37.816Z,3.9
2019-01-15T03:28:37.403Z,3.9
2019-01-15T03:33:37.164Z,3.8
2019-01-15T03:38:37.697Z,3.8
2019-01-15T03:43:37.234Z,3.8
2019-01-15T03:48:37.803Z,3.8
2019-01-15T03:53:37.259Z,3.9
2019-01-15T03:58:37.742Z,3.9
2019-01-15T04:03:37.732Z,3.9
2019-01-15T04:08:37.459Z,3.9
2019-01-15T04:13:37.270Z,3.9
2019-01-15T04:18:37.734Z,3.9
2019-01-15T04:23:37.173Z,4
2019-01-15T04:28:37.596Z,4
2019-01-15T04:33:38.158Z,4
2019-01-15T04:38:37.656Z,4
2019-01-15T04:43:38.108Z,4
2019-01-15T04:48:37.593Z,4
2019-01-15T04:53:38.118Z,4
2019-01-15T04:58:37.620Z,4
2019-01-15T05:03:38.309Z,4
2019-01-15T05:08:37.664Z,4
2019-01-15T05:13:38.150Z,4.1
2019-01-15T05:18:37.607Z,4.1
2019-01-15T05:23:38.116Z,4.1
2019-01-15T05:28:37.509Z,4.1
2019-01-15T05:33:38.176Z,4.1
2019-01-15T05:38:37.725Z,4.1
2019-01-15T05:43:38.269Z,4.1
2019-01-15T05:48:37.701Z,4.1
2019-01-15T05:53:37.517Z,4
2019-01-15T05:58:38.135Z,4
2019-01-15T06:03:37.662Z,3.9
2019-01-15T06:08:37.729Z,3.9
2019-01-15T06:13:42.670Z,3.8
2019-01-15T06:18:37.346Z,3.8
2019-01-15T06:23:37.800Z,3.8
2019-01-15T06:28:37.293Z,3.8
2019-01-15T06:33:38.096Z,3.8
2019-01-15T06:38:37.427Z,3.8
2019-01-15T06:43:37.908Z,3.8
2019-01-15T06:48:37.376Z,3.8
2019-01-15T06:53:38.090Z,3.8
2019-01-15T06:58:37.563Z,3.8
2019-01-15T07:03:38.051Z,3.8
2019-01-15T07:08:37.788Z,3.8
2019-01-15T07:13:37.351Z,3.8
2019-01-15T07:18:38.320Z,3.8
2019-01-15T07:23:38.025Z,3.8
2019-01-15T07:28:37.477Z,3.8
2019-01-15T07:33:38.191Z,3.8
2019-01-15T07:38:37.506Z,3.8
2019-01-15T07:43:37.983Z,3.9
2019-01-15T07:48:37.650Z,3.9
2019-01-15T07:53:38.171Z,3.9
2019-01-15T07:58:37.592Z,3.9
2019-01-15T08:03:38.067Z,4.1
2019-01-15T08:08:38.001Z,4.1
2019-01-15T08:13:37.803Z,4.2
2019-01-15T08:18:38.232Z,4.2
2019-01-15T08:23:38.252Z,4.3
2019-01-15T08:28:37.673Z,4.3
2019-01-15T08:33:37.511Z,4.4
2019-01-15T08:38:38.008Z,4.4
2019-01-15T08:43:37.596Z,4.5
2019-01-15T08:48:37.905Z,4.5
2019-01-15T08:53:37.616Z,4.6
2019-01-15T08:58:37.994Z,4.6
2019-01-15T09:03:37.603Z,4.7
2019-01-15T09:08:37.621Z,4.7
2019-01-15T09:13:37.591Z,4.8
2019-01-15T09:18:38.057Z,4.8
2019-01-15T09:23:37.696Z,4.8
2019-01-15T09:28:38.188Z,4.8
2019-01-15T09:33:37.904Z,4.9
2019-01-15T09:38:37.803Z,4.9
2019-01-15T09:43:38.242Z,5
2019-01-15T09:48:37.837Z,5
2019-01-15T09:53:38.153Z,5.1
2019-01-15T09:58:37.611Z,5.1
2019-01-15T10:03:38.137Z,5.1
2019-01-15T10:08:37.751Z,5.1
2019-01-15T10:13:38.470Z,5.2
2019-01-15T10:18:38.026Z,5.2
2019-01-15T10:23:38.484Z,5.3
2019-01-15T10:28:37.862Z,5.3
2019-01-15T10:33:37.803Z,5.4
2019-01-15T10:38:38.279Z,5.4
2019-01-15T10:43:38.132Z,5.5
2019-01-15T10:48:37.574Z,5.5
2019-01-15T10:53:37.968Z,5.6
2019-01-15T10:58:37.683Z,5.6
2019-01-15T11:03:38.439Z,5.8
2019-01-15T11:08:38.034Z,5.8
2019-01-15T11:13:37.805Z,5.8
2019-01-15T11:18:39.508Z,5.8
2019-01-15T11:23:38.030Z,5.8
2019-01-15T11:28:38.622Z,5.8
2019-01-15T11:33:38.485Z,5.9
2019-01-15T11:38:37.970Z,5.9
2019-01-15T11:43:39.066Z,6
2019-01-15T11:48:37.782Z,6
2019-01-15T11:53:38.486Z,6.1
2019-01-15T11:58:37.957Z,6.1
2019-01-15T12:03:38.551Z,6.1
2019-01-15T12:08:37.668Z,6.1
2019-01-15T12:13:38.295Z,6.2
2019-01-15T12:18:37.761Z,6.2
2019-01-15T12:23:38.264Z,6.2
2019-01-15T12:28:38.661Z,6.2
2019-01-15T12:33:38.283Z,6.3
2019-01-15T12:38:37.775Z,6.3
2019-01-15T12:43:38.244Z,6.3
2019-01-15T12:48:38.669Z,6.3
2019-01-15T12:53:38.264Z,6.4
2019-01-15T12:58:38.631Z,6.4
2019-01-15T13:03:38.175Z,6.4
2019-01-15T13:08:37.927Z,6.4
2019-01-15T13:13:37.899Z,6.5
2019-01-15T13:18:38.416Z,6.5
2019-01-15T13:23:37.939Z,6.5
2019-01-15T13:28:38.366Z,6.5
2019-01-15T13:33:38.019Z,6.6
2019-01-15T13:38:38.467Z,6.6
2019-01-15T13:43:37.825Z,6.6
2019-01-15T13:48:38.243Z,6.6
2019-01-15T13:53:38.229Z,6.7
2019-01-15T13:58:38.719Z,6.7
2019-01-15T14:03:38.334Z,6.7
2019-01-15T14:08:38.831Z,6.7
2019-01-15T14:13:38.163Z,6.7
2019-01-15T14:18:38.656Z,6.7
2019-01-15T14:23:38.293Z,6.8
2019-01-15T14:28:38.345Z,6.8
2019-01-15T14:33:38.326Z,6.8
2019-01-15T14:38:38.864Z,6.8
2019-01-15T14:43:38.260Z,6.8
2019-01-15T14:48:38.778Z,6.8
2019-01-15T14:53:38.484Z,6.9
2019-01-15T14:58:38.014Z,6.9
2019-01-15T15:03:38.916Z,6.9
2019-01-15T15:08:38.529Z,6.9
2019-01-15T15:13:38.156Z,6.9
2019-01-15T15:18:38.654Z,6.9
2019-01-15T15:23:38.152Z,6.9
2019-01-15T15:28:38.608Z,6.9
2019-01-15T15:33:38.651Z,6.9
2019-01-15T15:38:38.058Z,6.9
2019-01-15T15:43:38.621Z,6.9
2019-01-15T15:48:38.250Z,6.9
2019-01-15T15:53:38.011Z,6.9
2019-01-15T15:58:38.836Z,6.9
2019-01-15T16:03:38.914Z,7
2019-01-15T16:08:38.980Z,7
2019-01-15T16:13:38.012Z,7
2019-01-15T16:18:38.091Z,7
2019-01-15T16:23:38.687Z,7
2019-01-15T16:28:38.311Z,7
2019-01-15T16:33:38.158Z,7.1
2019-01-15T16:38:38.781Z,7.1
2019-01-15T16:43:38.398Z,7.1
2019-01-15T16:48:38.872Z,7.1
2019-01-15T16:53:38.432Z,7.1
2019-01-15T16:58:38.915Z,7.1
2019-01-15T17:03:38.366Z,7.2
2019-01-15T17:08:38.108Z,7.2
2019-01-15T17:13:38.909Z,7.2
2019-01-15T17:18:38.429Z,7.2
2019-01-15T17:23:39.028Z,7.3
2019-01-15T17:28:38.388Z,7.3
2019-01-15T17:33:38.172Z,7.3
2019-01-15T17:38:38.738Z,7.3
2019-01-15T17:43:38.091Z,7.3
2019-01-15T17:48:38.607Z,7.3
2019-01-15T17:53:38.212Z,7.3
2019-01-15T17:58:38.661Z,7.3
2019-01-15T18:03:38.155Z,7.4
2019-01-15T18:08:38.746Z,7.4
2019-01-15T18:13:38.080Z,7.3
2019-01-15T18:18:38.678Z,7.3
2019-01-15T18:23:38.164Z,7.4
2019-01-15T18:28:38.624Z,7.4
2019-01-15T18:33:38.198Z,7.3
2019-01-15T18:38:38.652Z,7.3
2019-01-15T18:43:38.246Z,7.3
2019-01-15T18:48:38.738Z,7.3
2019-01-15T18:53:38.519Z,7.3
2019-01-15T18:58:38.916Z,7.3
2019-01-15T19:03:38.514Z,7.4
2019-01-15T19:08:39.128Z,7.4
2019-01-15T19:13:38.623Z,7.4
2019-01-15T19:18:40.159Z,7.4
2019-01-15T19:23:38.278Z,7.4
2019-01-15T19:28:38.766Z,7.4
2019-01-15T19:33:38.333Z,7.4
2019-01-15T19:38:38.939Z,7.4
2019-01-15T19:43:38.349Z,7.4
2019-01-15T19:48:38.932Z,7.4
2019-01-15T19:53:38.471Z,7.4
2019-01-15T19:58:38.985Z,7.4
2019-01-15T20:03:38.587Z,7.4
2019-01-15T20:08:38.240Z,7.4
2019-01-15T20:13:38.682Z,7.4
2019-01-15T20:18:39.229Z,7.4
2019-01-15T20:23:38.685Z,7.4
2019-01-15T20:28:39.146Z,7.4
2019-01-15T20:33:38.739Z,7.4
2019-01-15T20:38:39.126Z,7.4
2019-01-15T20:43:38.536Z,7.4
2019-01-15T20:48:38.970Z,7.4
2019-01-15T20:53:38.535Z,7.4
2019-01-15T20:58:39.052Z,7.4
2019-01-15T21:03:38.546Z,7.4
2019-01-15T21:08:39.268Z,7.4
2019-01-15T21:13:38.606Z,7.4
2019-01-15T21:18:39.140Z,7.4
2019-01-15T21:23:38.490Z,7.4
2019-01-15T21:28:38.950Z,7.4
2019-01-15T21:33:38.564Z,7.4
2019-01-15T21:38:39.071Z,7.4
2019-01-15T21:43:38.685Z,7.4
2019-01-15T21:48:38.542Z,7.4
2019-01-15T21:53:39.147Z,7.4
2019-01-15T21:58:38.587Z,7.4
2019-01-15T22:03:39.346Z,7.4
2019-01-15T22:08:39.046Z,7.4
2019-01-15T22:13:38.604Z,7.4
2019-01-15T22:18:39.070Z,7.4
2019-01-15T22:23:38.587Z,7.5
2019-01-15T22:28:39.029Z,7.5
2019-01-15T22:33:38.593Z,7.5
2019-01-15T22:38:39.184Z,7.5
2019-01-15T22:43:38.729Z,7.5
2019-01-15T22:48:39.211Z,7.5
2019-01-15T22:53:38.850Z,7.5
2019-01-15T22:58:38.652Z,7.5
2019-01-15T23:03:39.467Z,7.4
2019-01-15T23:08:39.330Z,7.4
2019-01-15T23:13:39.358Z,7.4
2019-01-15T23:18:38.832Z,7.4
2019-01-15T23:23:39.292Z,7.4
2019-01-15T23:28:38.727Z,7.4
2019-01-15T23:33:39.390Z,7.4
2019-01-15T23:38:38.866Z,7.4
2019-01-15T23:43:39.334Z,7.3
2019-01-15T23:48:38.766Z,7.3
2019-01-15T23:53:39.399Z,7.3
2019-01-15T23:58:38.813Z,7.3
